sensor_id;sensor_type;location;lat;lon;timestamp;P1;durP1;ratioP1;P2;durP2;ratioP2
2105;SDS011;1059;52.548;13.408;2022-10-16T00:00:53;2.60;;;2.40;;
2105;SDS011;1059;52.548;13.408;2022-10-16T00:03:22;2.40;;;2.20;;
2105;SDS011;1059;52.548;13.408;2022-10-16T00:05:49;2.53;;;2.03;;
2105;SDS011;1059;52.548;13.408;2022-10-16T00:08:16;2.63;;;2.07;;
2105;SDS011;1059;52.548;13.408;2022-10-16T00:10:42;2.80;;;1.80;;
2105;SDS011;1059;52.548;13.408;2022-10-16T00:13:11;2.30;;;2.00;;
2105;SDS011;1059;52.548;13.408;2022-10-16T00:15:37;2.83;;;2.30;;
2105;SDS011;1059;52.548;13.408;2022-10-16T00:18:05;2.37;;;2.17;;
2105;SDS011;1059;52.548;13.408;2022-10-16T00:20:33;3.30;;;2.13;;
2105;SDS011;1059;52.548;13.408;2022-10-16T00:23:01;3.00;;;2.07;;
2105;SDS011;1059;52.548;13.408;2022-10-16T00:25:29;2.50;;;2.30;;
2105;SDS011;1059;52.548;13.408;2022-10-16T00:27:57;2.10;;;1.87;;
2105;SDS011;1059;52.548;13.408;2022-10-16T00:30:26;1.67;;;1.57;;
2105;SDS011;1059;52.548;13.408;2022-10-16T00:32:53;1.73;;;1.63;;
2105;SDS011;1059;52.548;13.408;2022-10-16T00:35:21;2.63;;;2.00;;
2105;SDS011;1059;52.548;13.408;2022-10-16T00:37:47;2.20;;;2.00;;
2105;SDS011;1059;52.548;13.408;2022-10-16T00:40:14;2.20;;;1.80;;
2105;SDS011;1059;52.548;13.408;2022-10-16T00:42:41;2.10;;;1.90;;
2105;SDS011;1059;52.548;13.408;2022-10-16T00:45:09;1.80;;;1.70;;
2105;SDS011;1059;52.548;13.408;2022-10-16T00:47:39;2.07;;;1.83;;
2105;SDS011;1059;52.548;13.408;2022-10-16T00:50:10;1.83;;;1.73;;
2105;SDS011;1059;52.548;13.408;2022-10-16T00:52:44;6.23;;;1.77;;
2105;SDS011;1059;52.548;13.408;2022-10-16T00:55:13;1.77;;;1.60;;
2105;SDS011;1059;52.548;13.408;2022-10-16T00:57:40;2.50;;;2.20;;
2105;SDS011;1059;52.548;13.408;2022-10-16T01:00:09;5.07;;;1.67;;
2105;SDS011;1059;52.548;13.408;2022-10-16T01:02:39;3.03;;;1.80;;
2105;SDS011;1059;52.548;13.408;2022-10-16T01:05:06;3.30;;;1.70;;
2105;SDS011;1059;52.548;13.408;2022-10-16T01:07:36;3.30;;;2.20;;
2105;SDS011;1059;52.548;13.408;2022-10-16T01:10:13;2.47;;;2.27;;
2105;SDS011;1059;52.548;13.408;2022-10-16T01:12:48;1.97;;;1.83;;
2105;SDS011;1059;52.548;13.408;2022-10-16T01:15:22;2.10;;;1.90;;
2105;SDS011;1059;52.548;13.408;2022-10-16T01:17:56;4.20;;;2.20;;
2105;SDS011;1059;52.548;13.408;2022-10-16T01:20:27;1.97;;;1.77;;
2105;SDS011;1059;52.548;13.408;2022-10-16T01:23:02;1.87;;;1.70;;
2105;SDS011;1059;52.548;13.408;2022-10-16T01:28:41;1.70;;;1.50;;
2105;SDS011;1059;52.548;13.408;2022-10-16T01:31:12;1.80;;;1.67;;
2105;SDS011;1059;52.548;13.408;2022-10-16T01:33:45;3.03;;;1.90;;
2105;SDS011;1059;52.548;13.408;2022-10-16T01:36:15;1.90;;;1.70;;
2105;SDS011;1059;52.548;13.408;2022-10-16T01:38:44;2.20;;;1.63;;
2105;SDS011;1059;52.548;13.408;2022-10-16T01:41:16;7.40;;;2.30;;
2105;SDS011;1059;52.548;13.408;2022-10-16T01:43:49;1.90;;;1.60;;
2105;SDS011;1059;52.548;13.408;2022-10-16T01:46:23;2.63;;;1.90;;
2105;SDS011;1059;52.548;13.408;2022-10-16T01:48:52;2.80;;;1.80;;
2105;SDS011;1059;52.548;13.408;2022-10-16T01:51:19;1.73;;;1.63;;
2105;SDS011;1059;52.548;13.408;2022-10-16T01:53:48;1.80;;;1.70;;
2105;SDS011;1059;52.548;13.408;2022-10-16T01:56:18;2.60;;;1.90;;
2105;SDS011;1059;52.548;13.408;2022-10-16T01:58:49;2.20;;;2.00;;
2105;SDS011;1059;52.548;13.408;2022-10-16T02:01:20;2.43;;;1.60;;
2105;SDS011;1059;52.548;13.408;2022-10-16T02:03:52;2.00;;;1.80;;
2105;SDS011;1059;52.548;13.408;2022-10-16T02:06:22;2.50;;;2.23;;
2105;SDS011;1059;52.548;13.408;2022-10-16T02:08:50;2.40;;;1.93;;
2105;SDS011;1059;52.548;13.408;2022-10-16T02:11:16;2.23;;;1.93;;
2105;SDS011;1059;52.548;13.408;2022-10-16T02:13:44;2.07;;;1.77;;
2105;SDS011;1059;52.548;13.408;2022-10-16T02:16:15;1.87;;;1.70;;
2105;SDS011;1059;52.548;13.408;2022-10-16T02:18:42;6.93;;;1.83;;
2105;SDS011;1059;52.548;13.408;2022-10-16T02:21:11;2.70;;;1.70;;
2105;SDS011;1059;52.548;13.408;2022-10-16T02:23:44;2.17;;;1.60;;
2105;SDS011;1059;52.548;13.408;2022-10-16T02:26:19;2.17;;;1.77;;
2105;SDS011;1059;52.548;13.408;2022-10-16T02:28:55;5.63;;;1.77;;
2105;SDS011;1059;52.548;13.408;2022-10-16T02:31:27;3.30;;;2.07;;
2105;SDS011;1059;52.548;13.408;2022-10-16T02:33:59;2.20;;;2.00;;
2105;SDS011;1059;52.548;13.408;2022-10-16T02:36:27;1.70;;;1.60;;
2105;SDS011;1059;52.548;13.408;2022-10-16T02:38:55;1.90;;;1.70;;
2105;SDS011;1059;52.548;13.408;2022-10-16T02:41:22;1.83;;;1.60;;
2105;SDS011;1059;52.548;13.408;2022-10-16T02:43:50;1.97;;;1.77;;
2105;SDS011;1059;52.548;13.408;2022-10-16T02:46:17;1.93;;;1.73;;
2105;SDS011;1059;52.548;13.408;2022-10-16T02:48:45;3.73;;;2.10;;
2105;SDS011;1059;52.548;13.408;2022-10-16T02:51:12;2.23;;;1.67;;
2105;SDS011;1059;52.548;13.408;2022-10-16T02:53:39;2.13;;;1.70;;
2105;SDS011;1059;52.548;13.408;2022-10-16T02:56:06;2.40;;;1.63;;
2105;SDS011;1059;52.548;13.408;2022-10-16T02:58:33;5.90;;;1.70;;
2105;SDS011;1059;52.548;13.408;2022-10-16T03:01:02;4.97;;;1.67;;
2105;SDS011;1059;52.548;13.408;2022-10-16T03:03:29;2.00;;;1.80;;
2105;SDS011;1059;52.548;13.408;2022-10-16T03:05:57;1.93;;;1.70;;
2105;SDS011;1059;52.548;13.408;2022-10-16T03:08:23;2.80;;;1.60;;
2105;SDS011;1059;52.548;13.408;2022-10-16T03:10:51;2.00;;;1.80;;
2105;SDS011;1059;52.548;13.408;2022-10-16T03:13:18;2.50;;;1.80;;
2105;SDS011;1059;52.548;13.408;2022-10-16T03:15:46;2.20;;;2.00;;
2105;SDS011;1059;52.548;13.408;2022-10-16T03:18:13;2.30;;;2.10;;
2105;SDS011;1059;52.548;13.408;2022-10-16T03:20:40;2.73;;;2.00;;
2105;SDS011;1059;52.548;13.408;2022-10-16T03:23:09;2.80;;;2.13;;
2105;SDS011;1059;52.548;13.408;2022-10-16T03:25:36;2.23;;;1.70;;
2105;SDS011;1059;52.548;13.408;2022-10-16T03:28:03;2.20;;;2.00;;
2105;SDS011;1059;52.548;13.408;2022-10-16T03:30:30;2.80;;;1.70;;
2105;SDS011;1059;52.548;13.408;2022-10-16T03:32:57;2.00;;;1.80;;
2105;SDS011;1059;52.548;13.408;2022-10-16T03:35:24;2.73;;;1.63;;
2105;SDS011;1059;52.548;13.408;2022-10-16T03:37:51;1.93;;;1.73;;
2105;SDS011;1059;52.548;13.408;2022-10-16T03:40:19;2.23;;;1.80;;
2105;SDS011;1059;52.548;13.408;2022-10-16T03:42:46;1.70;;;1.60;;
2105;SDS011;1059;52.548;13.408;2022-10-16T03:45:13;2.60;;;2.40;;
2105;SDS011;1059;52.548;13.408;2022-10-16T03:47:39;2.13;;;1.93;;
2105;SDS011;1059;52.548;13.408;2022-10-16T03:50:07;2.27;;;2.07;;
2105;SDS011;1059;52.548;13.408;2022-10-16T03:52:34;1.93;;;1.73;;
2105;SDS011;1059;52.548;13.408;2022-10-16T03:55:01;2.13;;;1.87;;
2105;SDS011;1059;52.548;13.408;2022-10-16T03:57:29;2.10;;;1.90;;
2105;SDS011;1059;52.548;13.408;2022-10-16T03:59:56;2.80;;;2.47;;
2105;SDS011;1059;52.548;13.408;2022-10-16T04:02:23;2.10;;;1.90;;
2105;SDS011;1059;52.548;13.408;2022-10-16T04:04:50;2.47;;;2.20;;
2105;SDS011;1059;52.548;13.408;2022-10-16T04:07:16;3.30;;;1.97;;
2105;SDS011;1059;52.548;13.408;2022-10-16T04:09:45;5.03;;;1.87;;
2105;SDS011;1059;52.548;13.408;2022-10-16T04:12:12;2.30;;;2.10;;
2105;SDS011;1059;52.548;13.408;2022-10-16T04:14:40;2.80;;;2.37;;
2105;SDS011;1059;52.548;13.408;2022-10-16T04:17:07;2.30;;;2.10;;
2105;SDS011;1059;52.548;13.408;2022-10-16T04:19:34;4.73;;;2.10;;
2105;SDS011;1059;52.548;13.408;2022-10-16T04:22:00;2.37;;;1.77;;
2105;SDS011;1059;52.548;13.408;2022-10-16T04:24:28;2.93;;;2.40;;
2105;SDS011;1059;52.548;13.408;2022-10-16T04:26:55;2.23;;;1.97;;
2105;SDS011;1059;52.548;13.408;2022-10-16T04:29:22;2.00;;;1.80;;
2105;SDS011;1059;52.548;13.408;2022-10-16T04:31:50;2.00;;;1.80;;
2105;SDS011;1059;52.548;13.408;2022-10-16T04:34:17;2.80;;;2.13;;
2105;SDS011;1059;52.548;13.408;2022-10-16T04:36:44;2.20;;;2.00;;
2105;SDS011;1059;52.548;13.408;2022-10-16T04:39:13;2.40;;;2.20;;
2105;SDS011;1059;52.548;13.408;2022-10-16T04:41:40;2.93;;;2.30;;
2105;SDS011;1059;52.548;13.408;2022-10-16T04:44:06;2.33;;;2.13;;
2105;SDS011;1059;52.548;13.408;2022-10-16T04:46:33;2.90;;;2.00;;
2105;SDS011;1059;52.548;13.408;2022-10-16T04:49:02;3.63;;;2.40;;
2105;SDS011;1059;52.548;13.408;2022-10-16T04:51:28;2.10;;;1.90;;
2105;SDS011;1059;52.548;13.408;2022-10-16T04:53:55;2.60;;;1.83;;
2105;SDS011;1059;52.548;13.408;2022-10-16T04:56:22;2.83;;;2.47;;
2105;SDS011;1059;52.548;13.408;2022-10-16T04:58:49;2.80;;;2.30;;
2105;SDS011;1059;52.548;13.408;2022-10-16T05:01:16;2.20;;;2.00;;
2105;SDS011;1059;52.548;13.408;2022-10-16T05:03:43;4.50;;;2.00;;
2105;SDS011;1059;52.548;13.408;2022-10-16T05:06:11;2.37;;;2.17;;
2105;SDS011;1059;52.548;13.408;2022-10-16T05:08:38;3.80;;;2.23;;
2105;SDS011;1059;52.548;13.408;2022-10-16T05:11:05;2.40;;;2.20;;
2105;SDS011;1059;52.548;13.408;2022-10-16T05:13:31;2.57;;;2.37;;
2105;SDS011;1059;52.548;13.408;2022-10-16T05:15:58;2.87;;;2.57;;
2105;SDS011;1059;52.548;13.408;2022-10-16T05:18:25;2.80;;;2.50;;
2105;SDS011;1059;52.548;13.408;2022-10-16T05:20:52;3.07;;;2.17;;
2105;SDS011;1059;52.548;13.408;2022-10-16T05:23:20;2.67;;;2.43;;
2105;SDS011;1059;52.548;13.408;2022-10-16T05:25:51;2.97;;;2.30;;
2105;SDS011;1059;52.548;13.408;2022-10-16T05:28:20;3.57;;;2.23;;
2105;SDS011;1059;52.548;13.408;2022-10-16T05:30:47;2.33;;;2.13;;
2105;SDS011;1059;52.548;13.408;2022-10-16T05:33:14;3.10;;;2.00;;
2105;SDS011;1059;52.548;13.408;2022-10-16T05:35:41;4.37;;;2.37;;
2105;SDS011;1059;52.548;13.408;2022-10-16T05:38:08;2.80;;;2.20;;
2105;SDS011;1059;52.548;13.408;2022-10-16T05:40:37;2.50;;;2.17;;
2105;SDS011;1059;52.548;13.408;2022-10-16T05:43:04;2.17;;;1.97;;
2105;SDS011;1059;52.548;13.408;2022-10-16T05:45:31;2.40;;;2.20;;
2105;SDS011;1059;52.548;13.408;2022-10-16T05:47:57;2.50;;;2.30;;
2105;SDS011;1059;52.548;13.408;2022-10-16T05:50:25;4.83;;;2.90;;
2105;SDS011;1059;52.548;13.408;2022-10-16T05:52:52;2.63;;;2.10;;
2105;SDS011;1059;52.548;13.408;2022-10-16T05:55:19;2.97;;;2.40;;
2105;SDS011;1059;52.548;13.408;2022-10-16T05:57:47;2.90;;;2.37;;
2105;SDS011;1059;52.548;13.408;2022-10-16T06:00:14;3.03;;;2.10;;
2105;SDS011;1059;52.548;13.408;2022-10-16T06:02:41;2.40;;;2.20;;
2105;SDS011;1059;52.548;13.408;2022-10-16T06:05:08;3.80;;;2.20;;
2105;SDS011;1059;52.548;13.408;2022-10-16T06:07:35;3.07;;;2.23;;
2105;SDS011;1059;52.548;13.408;2022-10-16T06:10:02;3.27;;;2.80;;
2105;SDS011;1059;52.548;13.408;2022-10-16T06:12:30;2.70;;;2.50;;
2105;SDS011;1059;52.548;13.408;2022-10-16T06:14:58;2.63;;;2.10;;
2105;SDS011;1059;52.548;13.408;2022-10-16T06:17:25;3.30;;;2.47;;
2105;SDS011;1059;52.548;13.408;2022-10-16T06:19:52;3.30;;;2.20;;
2105;SDS011;1059;52.548;13.408;2022-10-16T06:22:19;2.80;;;2.50;;
2105;SDS011;1059;52.548;13.408;2022-10-16T06:24:46;2.90;;;2.43;;
2105;SDS011;1059;52.548;13.408;2022-10-16T06:27:14;2.50;;;2.30;;
2105;SDS011;1059;52.548;13.408;2022-10-16T06:29:40;5.23;;;2.97;;
2105;SDS011;1059;52.548;13.408;2022-10-16T06:32:10;2.63;;;2.43;;
2105;SDS011;1059;52.548;13.408;2022-10-16T06:34:36;4.60;;;2.50;;
2105;SDS011;1059;52.548;13.408;2022-10-16T06:37:05;5.60;;;2.50;;
2105;SDS011;1059;52.548;13.408;2022-10-16T06:39:31;2.80;;;2.23;;
2105;SDS011;1059;52.548;13.408;2022-10-16T06:41:58;2.93;;;2.40;;
2105;SDS011;1059;52.548;13.408;2022-10-16T06:44:25;2.40;;;2.20;;
2105;SDS011;1059;52.548;13.408;2022-10-16T06:46:52;2.60;;;2.40;;
2105;SDS011;1059;52.548;13.408;2022-10-16T06:49:20;2.73;;;2.53;;
2105;SDS011;1059;52.548;13.408;2022-10-16T06:51:48;3.60;;;2.77;;
2105;SDS011;1059;52.548;13.408;2022-10-16T06:54:14;3.17;;;2.87;;
2105;SDS011;1059;52.548;13.408;2022-10-16T06:56:42;2.80;;;2.60;;
2105;SDS011;1059;52.548;13.408;2022-10-16T06:59:09;3.73;;;2.80;;
2105;SDS011;1059;52.548;13.408;2022-10-16T07:01:36;3.53;;;2.40;;
2105;SDS011;1059;52.548;13.408;2022-10-16T07:04:03;2.83;;;2.63;;
2105;SDS011;1059;52.548;13.408;2022-10-16T07:06:32;4.10;;;3.70;;
2105;SDS011;1059;52.548;13.408;2022-10-16T07:09:01;2.73;;;2.50;;
2105;SDS011;1059;52.548;13.408;2022-10-16T07:11:30;3.10;;;2.37;;
2105;SDS011;1059;52.548;13.408;2022-10-16T07:13:57;2.73;;;2.23;;
2105;SDS011;1059;52.548;13.408;2022-10-16T07:16:25;2.40;;;2.20;;
2105;SDS011;1059;52.548;13.408;2022-10-16T07:18:53;3.60;;;2.30;;
2105;SDS011;1059;52.548;13.408;2022-10-16T07:21:23;3.43;;;3.13;;
2105;SDS011;1059;52.548;13.408;2022-10-16T07:23:53;4.20;;;3.10;;
2105;SDS011;1059;52.548;13.408;2022-10-16T07:26:21;4.30;;;2.63;;
2105;SDS011;1059;52.548;13.408;2022-10-16T07:28:48;2.80;;;2.33;;
2105;SDS011;1059;52.548;13.408;2022-10-16T07:31:15;5.70;;;2.40;;
2105;SDS011;1059;52.548;13.408;2022-10-16T07:33:44;3.00;;;1.90;;
2105;SDS011;1059;52.548;13.408;2022-10-16T07:36:13;3.37;;;1.90;;
2105;SDS011;1059;52.548;13.408;2022-10-16T07:38:40;2.47;;;2.10;;
2105;SDS011;1059;52.548;13.408;2022-10-16T07:41:10;3.43;;;2.20;;
2105;SDS011;1059;52.548;13.408;2022-10-16T07:43:38;2.43;;;1.80;;
2105;SDS011;1059;52.548;13.408;2022-10-16T07:46:05;2.20;;;2.00;;
2105;SDS011;1059;52.548;13.408;2022-10-16T07:48:32;4.00;;;1.60;;
2105;SDS011;1059;52.548;13.408;2022-10-16T07:51:01;1.90;;;1.70;;
2105;SDS011;1059;52.548;13.408;2022-10-16T07:53:29;2.20;;;1.87;;
2105;SDS011;1059;52.548;13.408;2022-10-16T07:55:57;2.17;;;1.73;;
2105;SDS011;1059;52.548;13.408;2022-10-16T07:58:26;2.60;;;1.73;;
2105;SDS011;1059;52.548;13.408;2022-10-16T08:00:53;2.40;;;1.93;;
2105;SDS011;1059;52.548;13.408;2022-10-16T08:03:20;2.90;;;1.80;;
2105;SDS011;1059;52.548;13.408;2022-10-16T08:05:46;2.67;;;1.70;;
2105;SDS011;1059;52.548;13.408;2022-10-16T08:08:14;2.07;;;1.87;;
2105;SDS011;1059;52.548;13.408;2022-10-16T08:10:42;2.23;;;1.90;;
2105;SDS011;1059;52.548;13.408;2022-10-16T08:13:09;3.23;;;2.00;;
2105;SDS011;1059;52.548;13.408;2022-10-16T08:15:39;3.50;;;2.07;;
2105;SDS011;1059;52.548;13.408;2022-10-16T08:18:05;4.40;;;1.87;;
2105;SDS011;1059;52.548;13.408;2022-10-16T08:20:32;4.03;;;2.00;;
2105;SDS011;1059;52.548;13.408;2022-10-16T08:22:59;4.17;;;2.27;;
2105;SDS011;1059;52.548;13.408;2022-10-16T08:25:26;2.20;;;2.00;;
2105;SDS011;1059;52.548;13.408;2022-10-16T08:27:54;3.83;;;2.07;;
2105;SDS011;1059;52.548;13.408;2022-10-16T08:30:22;3.17;;;2.20;;
2105;SDS011;1059;52.548;13.408;2022-10-16T08:32:51;2.23;;;2.03;;
2105;SDS011;1059;52.548;13.408;2022-10-16T08:35:18;1.80;;;1.70;;
2105;SDS011;1059;52.548;13.408;2022-10-16T08:37:45;3.90;;;2.20;;
2105;SDS011;1059;52.548;13.408;2022-10-16T08:40:15;1.67;;;1.43;;
2105;SDS011;1059;52.548;13.408;2022-10-16T08:42:52;4.30;;;1.60;;
2105;SDS011;1059;52.548;13.408;2022-10-16T08:45:32;2.43;;;1.60;;
2105;SDS011;1059;52.548;13.408;2022-10-16T08:48:14;1.73;;;1.50;;
2105;SDS011;1059;52.548;13.408;2022-10-16T08:50:46;4.33;;;1.83;;
2105;SDS011;1059;52.548;13.408;2022-10-16T08:53:16;2.43;;;1.70;;
2105;SDS011;1059;52.548;13.408;2022-10-16T08:55:49;15.90;;;2.27;;
2105;SDS011;1059;52.548;13.408;2022-10-16T08:58:18;2.80;;;1.93;;
2105;SDS011;1059;52.548;13.408;2022-10-16T09:00:46;3.40;;;2.13;;
2105;SDS011;1059;52.548;13.408;2022-10-16T09:03:24;5.40;;;2.40;;
2105;SDS011;1059;52.548;13.408;2022-10-16T09:06:09;2.70;;;2.47;;
2105;SDS011;1059;52.548;13.408;2022-10-16T09:08:56;3.13;;;2.07;;
2105;SDS011;1059;52.548;13.408;2022-10-16T09:11:35;2.10;;;1.60;;
2105;SDS011;1059;52.548;13.408;2022-10-16T09:14:14;1.70;;;1.40;;
2105;SDS011;1059;52.548;13.408;2022-10-16T09:16:51;1.50;;;1.40;;
2105;SDS011;1059;52.548;13.408;2022-10-16T09:19:28;8.50;;;1.50;;
2105;SDS011;1059;52.548;13.408;2022-10-16T09:22:01;2.20;;;1.60;;
2105;SDS011;1059;52.548;13.408;2022-10-16T09:24:36;2.10;;;1.90;;
2105;SDS011;1059;52.548;13.408;2022-10-16T09:27:03;1.93;;;1.73;;
2105;SDS011;1059;52.548;13.408;2022-10-16T09:29:30;1.60;;;1.40;;
2105;SDS011;1059;52.548;13.408;2022-10-16T09:31:57;1.80;;;1.40;;
2105;SDS011;1059;52.548;13.408;2022-10-16T09:34:39;2.93;;;1.70;;
2105;SDS011;1059;52.548;13.408;2022-10-16T09:37:10;3.40;;;1.90;;
2105;SDS011;1059;52.548;13.408;2022-10-16T09:39:44;1.83;;;1.60;;
2105;SDS011;1059;52.548;13.408;2022-10-16T09:42:13;4.07;;;1.70;;
2105;SDS011;1059;52.548;13.408;2022-10-16T09:44:41;2.27;;;1.90;;
2105;SDS011;1059;52.548;13.408;2022-10-16T09:47:12;2.67;;;1.70;;
2105;SDS011;1059;52.548;13.408;2022-10-16T09:49:51;2.03;;;1.87;;
2105;SDS011;1059;52.548;13.408;2022-10-16T09:52:19;3.17;;;1.47;;
2105;SDS011;1059;52.548;13.408;2022-10-16T09:54:49;1.60;;;1.50;;
2105;SDS011;1059;52.548;13.408;2022-10-16T09:57:17;2.57;;;1.70;;
2105;SDS011;1059;52.548;13.408;2022-10-16T09:59:47;2.90;;;1.57;;
2105;SDS011;1059;52.548;13.408;2022-10-16T10:02:16;1.47;;;1.37;;
2105;SDS011;1059;52.548;13.408;2022-10-16T10:04:47;2.70;;;1.93;;
2105;SDS011;1059;52.548;13.408;2022-10-16T10:07:20;2.43;;;1.43;;
2105;SDS011;1059;52.548;13.408;2022-10-16T10:09:51;1.40;;;1.00;;
2105;SDS011;1059;52.548;13.408;2022-10-16T10:12:20;2.80;;;1.53;;
2105;SDS011;1059;52.548;13.408;2022-10-16T10:14:48;1.40;;;1.20;;
2105;SDS011;1059;52.548;13.408;2022-10-16T10:17:18;2.43;;;1.60;;
2105;SDS011;1059;52.548;13.408;2022-10-16T10:19:47;1.83;;;1.37;;
2105;SDS011;1059;52.548;13.408;2022-10-16T10:22:18;1.50;;;1.20;;
2105;SDS011;1059;52.548;13.408;2022-10-16T10:24:57;1.87;;;1.37;;
2105;SDS011;1059;52.548;13.408;2022-10-16T10:27:43;3.40;;;1.30;;
2105;SDS011;1059;52.548;13.408;2022-10-16T10:30:24;1.57;;;1.40;;
2105;SDS011;1059;52.548;13.408;2022-10-16T10:32:58;1.30;;;1.17;;
2105;SDS011;1059;52.548;13.408;2022-10-16T10:35:36;2.23;;;1.40;;
2105;SDS011;1059;52.548;13.408;2022-10-16T10:38:16;3.03;;;1.40;;
2105;SDS011;1059;52.548;13.408;2022-10-16T10:40:52;1.93;;;1.17;;
2105;SDS011;1059;52.548;13.408;2022-10-16T10:43:30;2.10;;;1.60;;
2105;SDS011;1059;52.548;13.408;2022-10-16T10:46:13;1.40;;;1.30;;
2105;SDS011;1059;52.548;13.408;2022-10-16T10:48:50;1.40;;;1.30;;
2105;SDS011;1059;52.548;13.408;2022-10-16T10:51:36;1.40;;;1.10;;
2105;SDS011;1059;52.548;13.408;2022-10-16T10:54:13;1.90;;;1.20;;
2105;SDS011;1059;52.548;13.408;2022-10-16T10:56:46;4.40;;;1.30;;
2105;SDS011;1059;52.548;13.408;2022-10-16T10:59:30;1.23;;;1.10;;
2105;SDS011;1059;52.548;13.408;2022-10-16T11:02:10;3.33;;;1.30;;
2105;SDS011;1059;52.548;13.408;2022-10-16T11:04:49;1.70;;;1.23;;
2105;SDS011;1059;52.548;13.408;2022-10-16T11:07:39;3.00;;;1.00;;
2105;SDS011;1059;52.548;13.408;2022-10-16T11:10:14;3.70;;;1.23;;
2105;SDS011;1059;52.548;13.408;2022-10-16T11:12:47;2.17;;;1.30;;
2105;SDS011;1059;52.548;13.408;2022-10-16T11:15:18;6.27;;;1.30;;
2105;SDS011;1059;52.548;13.408;2022-10-16T11:17:48;2.03;;;1.40;;
2105;SDS011;1059;52.548;13.408;2022-10-16T11:20:19;1.80;;;1.20;;
2105;SDS011;1059;52.548;13.408;2022-10-16T11:22:50;5.50;;;1.13;;
2105;SDS011;1059;52.548;13.408;2022-10-16T11:25:23;1.80;;;1.40;;
2105;SDS011;1059;52.548;13.408;2022-10-16T11:27:54;1.83;;;1.30;;
2105;SDS011;1059;52.548;13.408;2022-10-16T11:30:27;2.73;;;1.00;;
2105;SDS011;1059;52.548;13.408;2022-10-16T11:33:00;3.07;;;1.33;;
2105;SDS011;1059;52.548;13.408;2022-10-16T11:35:43;5.33;;;1.30;;
2105;SDS011;1059;52.548;13.408;2022-10-16T11:38:15;1.63;;;1.23;;
2105;SDS011;1059;52.548;13.408;2022-10-16T11:40:48;1.73;;;1.23;;
2105;SDS011;1059;52.548;13.408;2022-10-16T11:43:20;7.23;;;1.87;;
2105;SDS011;1059;52.548;13.408;2022-10-16T11:45:51;1.57;;;1.47;;
2105;SDS011;1059;52.548;13.408;2022-10-16T11:48:23;2.87;;;1.47;;
2105;SDS011;1059;52.548;13.408;2022-10-16T11:50:57;1.60;;;1.10;;
2105;SDS011;1059;52.548;13.408;2022-10-16T11:53:39;2.90;;;1.20;;
2105;SDS011;1059;52.548;13.408;2022-10-16T11:56:13;1.53;;;1.20;;
2105;SDS011;1059;52.548;13.408;2022-10-16T11:58:46;1.80;;;1.27;;
2105;SDS011;1059;52.548;13.408;2022-10-16T12:01:21;1.60;;;1.00;;
2105;SDS011;1059;52.548;13.408;2022-10-16T12:03:56;2.20;;;1.63;;
2105;SDS011;1059;52.548;13.408;2022-10-16T12:06:31;1.80;;;1.63;;
2105;SDS011;1059;52.548;13.408;2022-10-16T12:09:01;1.77;;;0.90;;
2105;SDS011;1059;52.548;13.408;2022-10-16T12:11:35;1.50;;;1.40;;
2105;SDS011;1059;52.548;13.408;2022-10-16T12:14:04;2.40;;;1.70;;
2105;SDS011;1059;52.548;13.408;2022-10-16T12:16:52;1.50;;;1.33;;
2105;SDS011;1059;52.548;13.408;2022-10-16T12:19:21;2.53;;;1.20;;
2105;SDS011;1059;52.548;13.408;2022-10-16T12:21:48;2.27;;;1.50;;
2105;SDS011;1059;52.548;13.408;2022-10-16T12:24:21;1.33;;;1.00;;
2105;SDS011;1059;52.548;13.408;2022-10-16T12:26:57;3.57;;;0.80;;
2105;SDS011;1059;52.548;13.408;2022-10-16T12:29:28;1.30;;;0.90;;
2105;SDS011;1059;52.548;13.408;2022-10-16T12:31:59;1.60;;;1.00;;
2105;SDS011;1059;52.548;13.408;2022-10-16T12:34:28;3.20;;;1.17;;
2105;SDS011;1059;52.548;13.408;2022-10-16T12:37:07;1.30;;;0.80;;
2105;SDS011;1059;52.548;13.408;2022-10-16T12:39:36;7.30;;;1.43;;
2105;SDS011;1059;52.548;13.408;2022-10-16T12:42:05;1.20;;;0.80;;
2105;SDS011;1059;52.548;13.408;2022-10-16T12:44:45;1.23;;;0.80;;
2105;SDS011;1059;52.548;13.408;2022-10-16T12:47:19;1.10;;;0.73;;
2105;SDS011;1059;52.548;13.408;2022-10-16T12:49:48;1.20;;;0.70;;
2105;SDS011;1059;52.548;13.408;2022-10-16T12:52:26;1.00;;;0.70;;
2105;SDS011;1059;52.548;13.408;2022-10-16T12:54:56;1.30;;;0.97;;
2105;SDS011;1059;52.548;13.408;2022-10-16T12:57:38;1.30;;;0.83;;
2105;SDS011;1059;52.548;13.408;2022-10-16T13:00:15;1.03;;;0.70;;
2105;SDS011;1059;52.548;13.408;2022-10-16T13:03:00;1.60;;;0.90;;
2105;SDS011;1059;52.548;13.408;2022-10-16T13:05:47;3.57;;;0.90;;
2105;SDS011;1059;52.548;13.408;2022-10-16T13:08:32;1.10;;;0.60;;
2105;SDS011;1059;52.548;13.408;2022-10-16T13:11:09;1.23;;;0.70;;
2105;SDS011;1059;52.548;13.408;2022-10-16T13:17:07;1.20;;;0.70;;
2105;SDS011;1059;52.548;13.408;2022-10-16T13:19:47;1.63;;;0.80;;
2105;SDS011;1059;52.548;13.408;2022-10-16T13:22:21;1.20;;;0.80;;
2105;SDS011;1059;52.548;13.408;2022-10-16T13:24:58;1.63;;;1.00;;
2105;SDS011;1059;52.548;13.408;2022-10-16T13:27:40;1.10;;;0.80;;
2105;SDS011;1059;52.548;13.408;2022-10-16T13:30:13;1.30;;;0.90;;
2105;SDS011;1059;52.548;13.408;2022-10-16T13:32:45;4.70;;;1.23;;
2105;SDS011;1059;52.548;13.408;2022-10-16T13:35:18;1.40;;;1.00;;
2105;SDS011;1059;52.548;13.408;2022-10-16T13:37:47;1.10;;;0.90;;
2105;SDS011;1059;52.548;13.408;2022-10-16T13:40:18;1.50;;;0.97;;
2105;SDS011;1059;52.548;13.408;2022-10-16T13:42:46;1.17;;;0.77;;
2105;SDS011;1059;52.548;13.408;2022-10-16T13:45:17;1.40;;;0.90;;
2105;SDS011;1059;52.548;13.408;2022-10-16T13:47:46;1.10;;;0.80;;
2105;SDS011;1059;52.548;13.408;2022-10-16T13:50:16;1.27;;;0.90;;
2105;SDS011;1059;52.548;13.408;2022-10-16T13:52:44;2.07;;;1.00;;
2105;SDS011;1059;52.548;13.408;2022-10-16T13:55:11;2.33;;;0.90;;
2105;SDS011;1059;52.548;13.408;2022-10-16T13:57:39;1.10;;;0.70;;
2105;SDS011;1059;52.548;13.408;2022-10-16T14:00:20;3.77;;;0.90;;
2105;SDS011;1059;52.548;13.408;2022-10-16T14:02:55;2.50;;;0.80;;
2105;SDS011;1059;52.548;13.408;2022-10-16T14:05:24;1.10;;;0.60;;
2105;SDS011;1059;52.548;13.408;2022-10-16T14:07:51;1.17;;;0.60;;
2105;SDS011;1059;52.548;13.408;2022-10-16T14:10:22;1.10;;;0.73;;
2105;SDS011;1059;52.548;13.408;2022-10-16T14:12:54;1.50;;;0.77;;
2105;SDS011;1059;52.548;13.408;2022-10-16T14:15:25;1.10;;;0.70;;
2105;SDS011;1059;52.548;13.408;2022-10-16T14:17:54;2.23;;;0.80;;
2105;SDS011;1059;52.548;13.408;2022-10-16T14:20:24;5.67;;;0.90;;
2105;SDS011;1059;52.548;13.408;2022-10-16T14:22:59;1.53;;;0.93;;
2105;SDS011;1059;52.548;13.408;2022-10-16T14:25:28;1.30;;;0.90;;
2105;SDS011;1059;52.548;13.408;2022-10-16T14:27:57;1.67;;;0.90;;
2105;SDS011;1059;52.548;13.408;2022-10-16T14:30:26;1.30;;;0.87;;
2105;SDS011;1059;52.548;13.408;2022-10-16T14:32:57;1.20;;;0.77;;
2105;SDS011;1059;52.548;13.408;2022-10-16T14:35:25;1.13;;;0.70;;
2105;SDS011;1059;52.548;13.408;2022-10-16T14:37:58;1.30;;;0.87;;
2105;SDS011;1059;52.548;13.408;2022-10-16T14:40:27;2.10;;;1.23;;
2105;SDS011;1059;52.548;13.408;2022-10-16T14:42:56;1.93;;;0.90;;
2105;SDS011;1059;52.548;13.408;2022-10-16T14:45:24;2.27;;;1.27;;
2105;SDS011;1059;52.548;13.408;2022-10-16T14:47:57;3.53;;;1.20;;
2105;SDS011;1059;52.548;13.408;2022-10-16T14:50:25;1.27;;;1.03;;
2105;SDS011;1059;52.548;13.408;2022-10-16T14:52:52;1.63;;;1.10;;
2105;SDS011;1059;52.548;13.408;2022-10-16T14:55:19;1.30;;;1.20;;
2105;SDS011;1059;52.548;13.408;2022-10-16T14:57:46;1.00;;;0.70;;
2105;SDS011;1059;52.548;13.408;2022-10-16T15:00:18;1.43;;;0.70;;
2105;SDS011;1059;52.548;13.408;2022-10-16T15:02:47;3.13;;;1.10;;
2105;SDS011;1059;52.548;13.408;2022-10-16T15:05:17;3.57;;;1.00;;
2105;SDS011;1059;52.548;13.408;2022-10-16T15:07:47;2.90;;;1.10;;
2105;SDS011;1059;52.548;13.408;2022-10-16T15:10:14;1.80;;;0.90;;
2105;SDS011;1059;52.548;13.408;2022-10-16T15:12:42;2.47;;;1.10;;
2105;SDS011;1059;52.548;13.408;2022-10-16T15:15:15;2.07;;;1.17;;
2105;SDS011;1059;52.548;13.408;2022-10-16T15:17:51;1.50;;;1.10;;
2105;SDS011;1059;52.548;13.408;2022-10-16T15:20:22;1.87;;;0.90;;
2105;SDS011;1059;52.548;13.408;2022-10-16T15:22:49;1.53;;;1.00;;
2105;SDS011;1059;52.548;13.408;2022-10-16T15:25:27;1.20;;;0.90;;